DLH9805 EDDS-EDDF
Flight info
| Callsign | DLH9805 |
|---|---|
| Flight time | N/A |
| Altitude | 22000 |
| Route | ETASA4B/25 ETASA T163 SPESA SPESA5B |
| Aircraft | A20N/M-SDE2E3FGHIRWXY/LB1 |
Departure
| Time | 2026-05-05 16:06 |
|---|---|
| Airport | Stuttgart Airport (EDDS) |
Arrival
| Time | N/A |
|---|---|
| Airport | Frankfurt Main Airport (EDDF) |
| Time | Latitude | Longitude | Altitude | Speed | Heading |
|---|---|---|---|---|---|
| 2026-05-05 15:48 | 48.68916 | 9.19587 | 1288 ft | 0 kts | 342° |
| 2026-05-05 15:54 | 48.68914 | 9.19588 | 1285 ft | 1 kts | 342° |
| 2026-05-05 15:54 | 48.68906 | 9.19592 | 1285 ft | 1 kts | 347° |
| 2026-05-05 15:54 | 48.68899 | 9.19594 | 1289 ft | 1 kts | 353° |
| 2026-05-05 15:55 | 48.68891 | 9.19596 | 1289 ft | 1 kts | 360° |
| 2026-05-05 15:55 | 48.68883 | 9.19596 | 1289 ft | 1 kts | 6° |
| 2026-05-05 15:55 | 48.68875 | 9.19594 | 1289 ft | 1 kts | 14° |
| 2026-05-05 15:55 | 48.68865 | 9.19590 | 1289 ft | 5 kts | 26° |
| 2026-05-05 15:56 | 48.68840 | 9.19552 | 1286 ft | 5 kts | 71° |
| 2026-05-05 15:56 | 48.68839 | 9.19548 | 1286 ft | 0 kts | 71° |
| 2026-05-05 15:59 | 48.68842 | 9.19560 | 1287 ft | 4 kts | 71° |
| 2026-05-05 15:59 | 48.68859 | 9.19656 | 1285 ft | 14 kts | 74° |
| 2026-05-05 15:59 | 48.68884 | 9.19778 | 1286 ft | 1 kts | 73° |
| 2026-05-05 16:00 | 48.68886 | 9.19833 | 1288 ft | 10 kts | 103° |
| 2026-05-05 16:00 | 48.68832 | 9.19912 | 1285 ft | 12 kts | 118° |
| 2026-05-05 16:00 | 48.68843 | 9.20058 | 1287 ft | 18 kts | 70° |
| 2026-05-05 16:00 | 48.68887 | 9.20271 | 1286 ft | 24 kts | 75° |
| 2026-05-05 16:01 | 48.68937 | 9.20546 | 1287 ft | 30 kts | 70° |
| 2026-05-05 16:01 | 48.68998 | 9.20872 | 1288 ft | 34 kts | 75° |
| 2026-05-05 16:01 | 48.69069 | 9.21241 | 1288 ft | 38 kts | 73° |
| 2026-05-05 16:01 | 48.69146 | 9.21640 | 1288 ft | 42 kts | 75° |
| 2026-05-05 16:02 | 48.69229 | 9.22066 | 1285 ft | 29 kts | 77° |
| 2026-05-05 16:02 | 48.69236 | 9.22119 | 1288 ft | 4 kts | 79° |
| 2026-05-05 16:02 | 48.69254 | 9.22206 | 1288 ft | 13 kts | 72° |
| 2026-05-05 16:02 | 48.69284 | 9.22354 | 1288 ft | 18 kts | 73° |
| 2026-05-05 16:03 | 48.69321 | 9.22571 | 1285 ft | 25 kts | 78° |
| 2026-05-05 16:03 | 48.69368 | 9.22849 | 1287 ft | 30 kts | 73° |
| 2026-05-05 16:03 | 48.69439 | 9.23173 | 1286 ft | 35 kts | 72° |
| 2026-05-05 16:03 | 48.69508 | 9.23544 | 1286 ft | 38 kts | 75° |
| 2026-05-05 16:04 | 48.69559 | 9.23807 | 1286 ft | 21 kts | 73° |
| 2026-05-05 16:04 | 48.69586 | 9.24048 | 1285 ft | 24 kts | 87° |
| 2026-05-05 16:04 | 48.69543 | 9.24292 | 1287 ft | 25 kts | 155° |
| 2026-05-05 16:04 | 48.69377 | 9.24254 | 1285 ft | 24 kts | 236° |
| 2026-05-05 16:05 | 48.69371 | 9.24219 | 1286 ft | 12 kts | 259° |
| 2026-05-05 16:05 | 48.69281 | 9.23716 | 1288 ft | 85 kts | 253° |
| 2026-05-05 16:05 | 48.69058 | 9.22561 | 1289 ft | 142 kts | 255° |
| 2026-05-05 16:05 | 48.68761 | 9.20963 | 1591 ft | 162 kts | 255° |
| 2026-05-05 16:06 | 48.68476 | 9.19343 | 2204 ft | 166 kts | 257° |
| 2026-05-05 16:06 | 48.68186 | 9.17447 | 2584 ft | 207 kts | 257° |
| 2026-05-05 16:06 | 48.67798 | 9.15205 | 3410 ft | 226 kts | 252° |
| 2026-05-05 16:06 | 48.67303 | 9.12935 | 4708 ft | 227 kts | 250° |
| 2026-05-05 16:07 | 48.66848 | 9.10653 | 6069 ft | 228 kts | 262° |
| 2026-05-05 16:07 | 48.67074 | 9.08259 | 7253 ft | 239 kts | 290° |
| 2026-05-05 16:07 | 48.68129 | 9.06228 | 8334 ft | 256 kts | 319° |
| 2026-05-05 16:07 | 48.69809 | 9.05133 | 9407 ft | 273 kts | 346° |
| 2026-05-05 16:08 | 48.71730 | 9.04755 | 10250 ft | 288 kts | 347° |
| 2026-05-05 16:08 | 48.73732 | 9.04128 | 10785 ft | 309 kts | 342° |
| 2026-05-05 16:08 | 48.75882 | 9.03195 | 11290 ft | 332 kts | 339° |
| 2026-05-05 16:08 | 48.78179 | 9.02162 | 11899 ft | 352 kts | 347° |
| 2026-05-05 16:09 | 48.80653 | 9.02180 | 12911 ft | 364 kts | 9° |
| 2026-05-05 16:09 | 48.83052 | 9.03544 | 13950 ft | 373 kts | 26° |
| 2026-05-05 16:09 | 48.85328 | 9.05538 | 14907 ft | 379 kts | 30° |
| 2026-05-05 16:09 | 48.87678 | 9.07417 | 15871 ft | 383 kts | 21° |
| 2026-05-05 16:10 | 48.90208 | 9.08594 | 16780 ft | 387 kts | 9° |
| 2026-05-05 16:10 | 48.92901 | 9.09099 | 17675 ft | 392 kts | 4° |
| 2026-05-05 16:10 | 48.95652 | 9.09492 | 18511 ft | 398 kts | 4° |
| 2026-05-05 16:10 | 48.98428 | 9.09887 | 19347 ft | 403 kts | 5° |
| 2026-05-05 16:11 | 49.01246 | 9.10287 | 20165 ft | 408 kts | 5° |
| 2026-05-05 16:11 | 49.09929 | 9.11524 | 21794 ft | 441 kts | 5° |
| 2026-05-05 16:12 | 49.13074 | 9.11975 | 21841 ft | 463 kts | 5° |
| 2026-05-05 16:12 | 49.19763 | 9.12935 | 21470 ft | 492 kts | 5° |
| 2026-05-05 16:13 | 49.23644 | 9.13466 | 21287 ft | 470 kts | 5° |
| 2026-05-05 16:13 | 49.26299 | 9.13836 | 21421 ft | 447 kts | 5° |
| 2026-05-05 16:14 | 49.32150 | 9.14686 | 21834 ft | 414 kts | 5° |
| 2026-05-05 16:14 | 49.37989 | 9.15529 | 21830 ft | 420 kts | 5° |
| 2026-05-05 16:15 | 49.43787 | 9.16358 | 21654 ft | 415 kts | 6° |
| 2026-05-05 16:15 | 49.49470 | 9.17174 | 20650 ft | 411 kts | 5° |
| 2026-05-05 16:16 | 49.55121 | 9.17986 | 19621 ft | 406 kts | 5° |
| 2026-05-05 16:16 | 49.60717 | 9.18793 | 18558 ft | 400 kts | 5° |
| 2026-05-05 16:17 | 49.66026 | 9.20655 | 17416 ft | 391 kts | 30° |
| 2026-05-05 16:17 | 49.68195 | 9.23116 | 16845 ft | 383 kts | 47° |
| 2026-05-05 16:18 | 49.71960 | 9.28813 | 15705 ft | 378 kts | 37° |
| 2026-05-05 16:18 | 49.74257 | 9.30772 | 15142 ft | 377 kts | 22° |
| 2026-05-05 16:18 | 49.79340 | 9.32623 | 14094 ft | 373 kts | 12° |
| 2026-05-05 16:19 | 49.81897 | 9.33158 | 13674 ft | 368 kts | 358° |
| 2026-05-05 16:19 | 49.84324 | 9.32389 | 13524 ft | 353 kts | 336° |
| 2026-05-05 16:19 | 49.87695 | 9.27543 | 12947 ft | 328 kts | 300° |
| 2026-05-05 16:20 | 49.89683 | 9.21241 | 12239 ft | 313 kts | 278° |
| 2026-05-05 16:20 | 49.90336 | 9.14816 | 11893 ft | 292 kts | 277° |
| 2026-05-05 16:21 | 49.91213 | 9.08850 | 11484 ft | 278 kts | 282° |
| 2026-05-05 16:22 | 49.92767 | 9.00450 | 10579 ft | 261 kts | 284° |
| 2026-05-05 16:22 | 49.93790 | 8.95082 | 9801 ft | 258 kts | 286° |
| 2026-05-05 16:23 | 49.96282 | 8.91406 | 9311 ft | 264 kts | 346° |
| 2026-05-05 16:23 | 49.98122 | 8.91219 | 9216 ft | 265 kts | 1° |
| 2026-05-05 16:23 | 50.01766 | 8.91792 | 9019 ft | 263 kts | 22° |
| 2026-05-05 16:24 | 50.03250 | 8.93396 | 8932 ft | 261 kts | 52° |
| 2026-05-05 16:24 | 50.04103 | 8.95852 | 8846 ft | 259 kts | 71° |
| 2026-05-05 16:24 | 50.05242 | 9.01094 | 8336 ft | 254 kts | 74° |
| 2026-05-05 16:25 | 50.05795 | 9.03673 | 7935 ft | 254 kts | 73° |
| 2026-05-05 16:25 | 50.06966 | 9.08845 | 7183 ft | 252 kts | 72° |
| 2026-05-05 16:25 | 50.07563 | 9.11412 | 6831 ft | 251 kts | 72° |
| 2026-05-05 16:26 | 50.08754 | 9.16510 | 6117 ft | 248 kts | 72° |
| 2026-05-05 16:26 | 50.09928 | 9.21558 | 5354 ft | 247 kts | 71° |
| 2026-05-05 16:27 | 50.10510 | 9.24064 | 4998 ft | 245 kts | 71° |
| 2026-05-05 16:27 | 50.11078 | 9.26513 | 4851 ft | 246 kts | 71° |
| 2026-05-05 16:27 | 50.11662 | 9.29036 | 4820 ft | 246 kts | 71° |
| 2026-05-05 16:27 | 50.12229 | 9.31480 | 4812 ft | 232 kts | 71° |
| 2026-05-05 16:28 | 50.12761 | 9.33774 | 4818 ft | 223 kts | 71° |
| 2026-05-05 16:28 | 50.13292 | 9.36079 | 4814 ft | 225 kts | 72° |
| 2026-05-05 16:28 | 50.13822 | 9.38377 | 4816 ft | 225 kts | 72° |
| 2026-05-05 16:28 | 50.14348 | 9.40645 | 4813 ft | 225 kts | 69° |
| 2026-05-05 16:29 | 50.15279 | 9.42575 | 4816 ft | 226 kts | 35° |
| 2026-05-05 16:29 | 50.16740 | 9.43419 | 4819 ft | 228 kts | 1° |
| 2026-05-05 16:29 | 50.18290 | 9.43130 | 4815 ft | 222 kts | 346° |
| 2026-05-05 16:29 | 50.19796 | 9.42565 | 4819 ft | 224 kts | 345° |
| 2026-05-05 16:30 | 50.21312 | 9.41997 | 4815 ft | 222 kts | 345° |
| 2026-05-05 16:30 | 50.22813 | 9.41400 | 4796 ft | 222 kts | 333° |
| 2026-05-05 16:30 | 50.23955 | 9.39927 | 4811 ft | 214 kts | 298° |
| 2026-05-05 16:30 | 50.24354 | 9.37738 | 4818 ft | 210 kts | 263° |
| 2026-05-05 16:31 | 50.23964 | 9.35545 | 4816 ft | 211 kts | 246° |
| 2026-05-05 16:31 | 50.23431 | 9.33434 | 4774 ft | 206 kts | 246° |
| 2026-05-05 16:31 | 50.22913 | 9.31350 | 4482 ft | 206 kts | 247° |
| 2026-05-05 16:31 | 50.22407 | 9.29251 | 4165 ft | 206 kts | 248° |
| 2026-05-05 16:32 | 50.21915 | 9.27158 | 3870 ft | 204 kts | 248° |
| 2026-05-05 16:32 | 50.21432 | 9.25071 | 3565 ft | 204 kts | 249° |
| 2026-05-05 16:32 | 50.20953 | 9.22994 | 3307 ft | 202 kts | 249° |
| 2026-05-05 16:32 | 50.20479 | 9.20936 | 3095 ft | 202 kts | 249° |
| 2026-05-05 16:33 | 50.20013 | 9.18900 | 3003 ft | 202 kts | 248° |
| 2026-05-05 16:33 | 50.19544 | 9.16856 | 3014 ft | 195 kts | 248° |
| 2026-05-05 16:33 | 50.19153 | 9.14907 | 2980 ft | 181 kts | 252° |
| 2026-05-05 16:33 | 50.18783 | 9.13054 | 2982 ft | 183 kts | 250° |
| 2026-05-05 16:34 | 50.18373 | 9.11212 | 2983 ft | 177 kts | 248° |
| 2026-05-05 16:34 | 50.17940 | 9.09379 | 2987 ft | 180 kts | 248° |
| 2026-05-05 16:34 | 50.17504 | 9.07548 | 2994 ft | 181 kts | 248° |
| 2026-05-05 16:34 | 50.17066 | 9.05710 | 2987 ft | 182 kts | 248° |
| 2026-05-05 16:35 | 50.16628 | 9.03866 | 2989 ft | 180 kts | 248° |
| 2026-05-05 16:35 | 50.16192 | 9.02037 | 2991 ft | 183 kts | 248° |
| 2026-05-05 16:35 | 50.15747 | 9.00167 | 2998 ft | 182 kts | 247° |
| 2026-05-05 16:35 | 50.15318 | 8.98360 | 2951 ft | 177 kts | 247° |
| 2026-05-05 16:36 | 50.14873 | 8.96499 | 2998 ft | 187 kts | 247° |
| 2026-05-05 16:36 | 50.14424 | 8.94607 | 3572 ft | 186 kts | 248° |
| 2026-05-05 16:36 | 50.13987 | 8.92770 | 3891 ft | 180 kts | 247° |
| 2026-05-05 16:36 | 50.13540 | 8.90902 | 3994 ft | 189 kts | 248° |
| 2026-05-05 16:37 | 50.13094 | 8.89025 | 3992 ft | 179 kts | 248° |
| 2026-05-05 16:37 | 50.12651 | 8.87168 | 3995 ft | 186 kts | 248° |
| 2026-05-05 16:37 | 50.12208 | 8.85305 | 3990 ft | 181 kts | 248° |
| 2026-05-05 16:37 | 50.11770 | 8.83473 | 3999 ft | 183 kts | 248° |
| 2026-05-05 16:38 | 50.11314 | 8.81548 | 3683 ft | 190 kts | 248° |
| 2026-05-05 16:38 | 50.10880 | 8.79641 | 3391 ft | 182 kts | 249° |
| 2026-05-05 16:38 | 50.10446 | 8.77774 | 3016 ft | 183 kts | 248° |
| 2026-05-05 16:38 | 50.10026 | 8.75975 | 2835 ft | 181 kts | 249° |
| 2026-05-05 16:39 | 50.09578 | 8.74107 | 2888 ft | 190 kts | 248° |
| 2026-05-05 16:39 | 50.09086 | 8.72120 | 2919 ft | 192 kts | 248° |
| 2026-05-05 16:39 | 50.08614 | 8.70265 | 2925 ft | 180 kts | 248° |
| 2026-05-05 16:39 | 50.08181 | 8.68435 | 2604 ft | 181 kts | 249° |
| 2026-05-05 16:40 | 50.07742 | 8.66624 | 2303 ft | 176 kts | 247° |
| 2026-05-05 16:40 | 50.07286 | 8.64893 | 2006 ft | 169 kts | 246° |
| 2026-05-05 16:40 | 50.06896 | 8.63216 | 1858 ft | 153 kts | 254° |
| 2026-05-05 16:40 | 50.06588 | 8.61622 | 1511 ft | 168 kts | 255° |
| 2026-05-05 16:41 | 50.06370 | 8.59842 | 1162 ft | 159 kts | 257° |
| 2026-05-05 16:41 | 50.06073 | 8.58242 | 701 ft | 155 kts | 260° |
| 2026-05-05 16:41 | 50.05833 | 8.56802 | 670 ft | 127 kts | 251° |
| 2026-05-05 16:41 | 50.05666 | 8.55374 | 1007 ft | 147 kts | 259° |
| 2026-05-05 16:42 | 50.05475 | 8.53535 | 1283 ft | 186 kts | 260° |
| 2026-05-05 16:42 | 50.05157 | 8.51431 | 1902 ft | 201 kts | 242° |
| 2026-05-05 16:42 | 50.04376 | 8.49673 | 2945 ft | 204 kts | 234° |
| 2026-05-05 16:42 | 50.03863 | 8.47569 | 3644 ft | 223 kts | 262° |
| 2026-05-05 16:43 | 50.04011 | 8.44999 | 3928 ft | 258 kts | 286° |
| 2026-05-05 16:43 | 50.04915 | 8.42421 | 4025 ft | 289 kts | 309° |
| 2026-05-05 16:43 | 50.06596 | 8.40500 | 4026 ft | 315 kts | 334° |
| 2026-05-05 16:43 | 50.08785 | 8.39872 | 4205 ft | 328 kts | 2° |
| 2026-05-05 16:44 | 50.10926 | 8.40804 | 4482 ft | 306 kts | 29° |
| 2026-05-05 16:44 | 50.12738 | 8.42643 | 4539 ft | 318 kts | 40° |
| 2026-05-05 16:44 | 50.14205 | 8.45096 | 4128 ft | 296 kts | 58° |
| 2026-05-05 16:44 | 50.14761 | 8.46937 | 4013 ft | 271 kts | 73° |
| 2026-05-05 16:45 | 50.15317 | 8.49563 | 3996 ft | 244 kts | 73° |
| 2026-05-05 16:45 | 50.15854 | 8.52099 | 4003 ft | 244 kts | 73° |
| 2026-05-05 16:45 | 50.16381 | 8.54590 | 4000 ft | 242 kts | 73° |
| 2026-05-05 16:45 | 50.16910 | 8.57076 | 3997 ft | 244 kts | 73° |
| 2026-05-05 16:46 | 50.17446 | 8.59614 | 3998 ft | 248 kts | 73° |
| 2026-05-05 16:46 | 50.17971 | 8.62146 | 3996 ft | 241 kts | 73° |
| 2026-05-05 16:46 | 50.18491 | 8.64653 | 4001 ft | 245 kts | 73° |
| 2026-05-05 16:46 | 50.19017 | 8.67183 | 3999 ft | 244 kts | 73° |
| 2026-05-05 16:47 | 50.19536 | 8.69669 | 3998 ft | 244 kts | 73° |
| 2026-05-05 16:47 | 50.20059 | 8.72197 | 3996 ft | 243 kts | 73° |
| 2026-05-05 16:47 | 50.20577 | 8.74715 | 3997 ft | 245 kts | 73° |
| 2026-05-05 16:47 | 50.21104 | 8.77249 | 3997 ft | 244 kts | 73° |
| 2026-05-05 16:48 | 50.21624 | 8.79764 | 3995 ft | 243 kts | 73° |
| 2026-05-05 16:48 | 50.22151 | 8.82278 | 3990 ft | 241 kts | 73° |
| 2026-05-05 16:48 | 50.22684 | 8.84788 | 3997 ft | 246 kts | 73° |
| 2026-05-05 16:48 | 50.23212 | 8.87303 | 3991 ft | 242 kts | 73° |
| 2026-05-05 16:49 | 50.23738 | 8.89789 | 3990 ft | 242 kts | 73° |
| 2026-05-05 16:49 | 50.24270 | 8.92279 | 3992 ft | 245 kts | 73° |
| 2026-05-05 16:49 | 50.24800 | 8.94761 | 3997 ft | 244 kts | 73° |
| 2026-05-05 16:49 | 50.25333 | 8.97283 | 3988 ft | 242 kts | 73° |
| 2026-05-05 16:50 | 50.25856 | 8.99789 | 3988 ft | 243 kts | 73° |
| 2026-05-05 16:50 | 50.26376 | 9.02305 | 3983 ft | 243 kts | 73° |
| 2026-05-05 16:50 | 50.26896 | 9.04826 | 3988 ft | 245 kts | 73° |
| 2026-05-05 16:50 | 50.27411 | 9.07363 | 3986 ft | 243 kts | 73° |
| 2026-05-05 16:51 | 50.27927 | 9.09871 | 3989 ft | 244 kts | 73° |
| 2026-05-05 16:51 | 50.28443 | 9.12396 | 3990 ft | 245 kts | 73° |
| 2026-05-05 16:51 | 50.28958 | 9.14913 | 3990 ft | 242 kts | 73° |
| 2026-05-05 16:51 | 50.29465 | 9.17409 | 3987 ft | 239 kts | 75° |